createdAt,value
2022-09-22T00:00:39.332Z,101232.38
2022-09-22T00:05:37.070Z,101230.97
2022-09-22T00:10:34.945Z,101249.34
2022-09-22T00:15:35.832Z,101251.06
2022-09-22T00:20:35.798Z,101235.88
2022-09-22T00:25:33.951Z,101244.06
2022-09-22T00:30:32.771Z,101245.44
2022-09-22T00:35:33.617Z,101245.19
2022-09-22T00:40:33.050Z,101230.94
2022-09-22T00:45:31.252Z,101210.78
2022-09-22T00:50:31.231Z,101228.94
2022-09-22T00:55:38.082Z,101219.44
2022-09-22T01:00:43.013Z,101215.16
2022-09-22T01:05:43.437Z,101251.25
2022-09-22T01:10:44.485Z,101226.72
2022-09-22T01:15:49.772Z,101258.34
2022-09-22T01:21:10.610Z,101262.13
2022-09-22T01:26:22.076Z,101227.72
2022-09-22T01:31:29.600Z,101229.44
2022-09-22T01:36:44.101Z,101223.97
2022-09-22T01:42:08.806Z,101260.91
2022-09-22T01:47:19.926Z,101230.38
2022-09-22T01:52:22.988Z,101240.94
2022-09-22T01:57:37.826Z,101246.34
2022-09-22T02:02:42.657Z,101230.03
2022-09-22T02:07:46.535Z,101222.34
2022-09-22T02:12:55.679Z,101225.56
2022-09-22T02:17:57.343Z,101221.97
2022-09-22T02:22:59.415Z,101268.00
2022-09-22T02:28:00.723Z,101239.13
2022-09-22T02:32:59.434Z,101261.44
2022-09-22T02:38:12.068Z,101247.72
2022-09-22T02:43:32.993Z,101230.72
2022-09-22T02:48:37.701Z,101263.75
2022-09-22T02:53:37.546Z,101225.81
2022-09-22T02:58:36.549Z,101237.09
2022-09-22T03:03:35.866Z,101247.56
2022-09-22T03:08:36.734Z,101254.00
2022-09-22T03:13:37.439Z,101240.34
2022-09-22T03:18:36.093Z,101252.16
2022-09-22T03:23:38.245Z,101231.69
2022-09-22T03:28:36.120Z,101276.69
2022-09-22T03:33:35.145Z,101265.41
2022-09-22T03:38:33.752Z,101265.13
2022-09-22T03:43:32.956Z,101264.31
2022-09-22T03:48:32.479Z,101289.66
2022-09-22T03:53:33.767Z,101251.84
2022-09-22T03:58:36.478Z,101293.59
2022-09-22T04:03:34.911Z,101249.16
2022-09-22T04:08:34.507Z,101275.78
2022-09-22T04:13:33.439Z,101253.06
2022-09-22T04:18:32.939Z,101270.38
2022-09-22T04:23:32.180Z,101274.44
2022-09-22T04:28:31.637Z,101269.72
2022-09-22T04:33:30.189Z,101285.13
2022-09-22T04:38:41.259Z,101241.19
2022-09-22T04:43:45.507Z,101269.81
2022-09-22T04:48:43.974Z,101245.94
2022-09-22T04:53:49.637Z,101256.09
2022-09-22T04:58:52.257Z,101290.44
2022-09-22T05:03:53.642Z,101255.25
2022-09-22T05:08:52.616Z,101261.72
2022-09-22T05:13:51.131Z,101287.84
2022-09-22T05:18:50.448Z,101263.75
2022-09-22T05:23:48.926Z,101269.34
2022-09-22T05:28:51.761Z,101286.03
2022-09-22T05:33:49.356Z,101301.38
2022-09-22T05:38:52.423Z,101270.13
2022-09-22T05:43:51.939Z,101267.53
2022-09-22T05:48:51.984Z,101281.31
2022-09-22T05:54:05.152Z,101280.81
2022-09-22T05:59:03.903Z,101297.06
2022-09-22T06:04:02.888Z,101319.34
2022-09-22T06:09:01.846Z,101288.44
2022-09-22T06:14:00.609Z,101280.63
2022-09-22T06:18:58.539Z,101287.53
2022-09-22T06:23:58.721Z,101284.34
2022-09-22T06:28:58.628Z,101298.34
2022-09-22T06:33:58.548Z,101302.94
2022-09-22T06:38:58.813Z,101318.41
2022-09-22T06:43:57.489Z,101316.00
2022-09-22T06:48:58.058Z,101293.75
2022-09-22T06:53:59.016Z,101336.97
2022-09-22T06:59:12.845Z,101289.66
2022-09-22T07:04:17.920Z,101350.38
2022-09-22T07:09:16.815Z,101301.94
2022-09-22T07:14:18.640Z,101334.03
2022-09-22T07:19:20.643Z,101308.47
2022-09-22T07:24:21.678Z,101313.09
2022-09-22T07:29:20.741Z,101315.72
2022-09-22T07:34:23.471Z,101299.16
2022-09-22T07:39:25.348Z,101320.75
2022-09-22T07:44:44.869Z,101332.38
2022-09-22T07:49:45.136Z,101322.19
2022-09-22T07:54:43.074Z,101314.34
2022-09-22T07:59:43.755Z,101331.47
2022-09-22T08:04:44.045Z,101310.19
2022-09-22T08:09:43.522Z,101310.09
2022-09-22T08:14:45.788Z,101297.56
2022-09-22T08:19:46.371Z,101292.16
2022-09-22T08:24:47.014Z,101266.91
2022-09-22T08:29:44.687Z,101290.34
2022-09-22T08:34:44.935Z,101256.56
2022-09-22T08:39:45.742Z,101276.44
2022-09-22T08:45:15.892Z,101276.13
2022-09-22T08:50:49.187Z,101268.91
2022-09-22T08:55:54.866Z,101293.00
2022-09-22T09:01:03.791Z,101275.78
2022-09-22T09:06:13.039Z,101290.78
2022-09-22T09:11:49.522Z,101288.63
2022-09-22T09:16:57.326Z,101260.91
2022-09-22T09:22:02.172Z,101255.09
2022-09-22T09:27:10.044Z,101248.53
2022-09-22T09:32:19.647Z,101256.31
2022-09-22T09:37:19.273Z,101251.38
2022-09-22T09:42:27.235Z,101279.50
2022-09-22T09:47:29.395Z,101280.19
2022-09-22T09:52:28.801Z,101241.16
2022-09-22T09:57:29.792Z,101236.72
2022-09-22T10:02:29.915Z,101247.59
2022-09-22T10:12:38.262Z,101224.09
2022-09-22T10:17:42.733Z,101210.63
2022-09-22T10:22:42.442Z,101227.38
2022-09-22T10:27:41.045Z,101237.09
2022-09-22T10:33:05.276Z,101217.06
2022-09-22T10:38:11.711Z,101219.75
2022-09-22T10:43:26.701Z,101239.88
2022-09-22T10:48:37.064Z,101202.09
2022-09-22T10:54:05.956Z,101227.88
2022-09-22T10:59:36.354Z,101167.75
2022-09-22T11:04:54.994Z,101222.41
2022-09-22T11:10:42.951Z,101216.09
2022-09-22T11:22:41.744Z,101195.34
2022-09-22T11:34:25.559Z,101187.78
2022-09-22T11:39:37.025Z,101184.50
2022-09-22T11:44:43.104Z,101166.91
2022-09-22T11:50:24.243Z,101172.91
2022-09-22T11:56:12.307Z,101137.84
2022-09-22T12:01:33.245Z,101113.91
2022-09-22T12:06:42.116Z,101126.81
2022-09-22T12:11:48.370Z,101120.22
2022-09-22T12:17:10.530Z,101134.81
2022-09-22T12:22:51.679Z,101154.44
2022-09-22T12:28:05.177Z,101129.63
2022-09-22T12:33:05.281Z,101120.19
2022-09-22T12:38:03.118Z,101108.97
2022-09-22T12:43:01.381Z,101116.81
2022-09-22T12:48:00.715Z,101105.97
2022-09-22T12:53:04.734Z,101125.72
2022-09-22T12:58:03.457Z,101116.31
2022-09-22T13:03:02.761Z,101115.63
2022-09-22T13:08:04.447Z,101099.41
2022-09-22T13:13:05.655Z,101113.28
2022-09-22T13:18:03.604Z,101115.25
2022-09-22T13:23:14.810Z,101067.31
2022-09-22T13:28:16.286Z,101088.75
2022-09-22T13:33:26.009Z,101089.34
2022-09-22T13:38:25.379Z,101097.88
2022-09-22T13:43:38.650Z,101086.63
2022-09-22T13:48:38.231Z,101076.16
2022-09-22T13:53:37.522Z,101077.16
2022-09-22T13:58:38.980Z,101088.59
2022-09-22T14:03:38.462Z,101079.91
2022-09-22T14:08:37.676Z,101077.25
2022-09-22T14:13:58.382Z,101076.63
2022-09-22T14:19:04.666Z,101070.81
2022-09-22T14:24:03.088Z,101080.44
2022-09-22T14:29:17.259Z,101075.28
2022-09-22T14:34:21.353Z,101099.53
2022-09-22T14:39:24.910Z,101079.25
2022-09-22T14:44:50.120Z,101082.09
2022-09-22T14:49:48.838Z,101100.84
2022-09-22T14:54:48.429Z,101073.06
2022-09-22T15:00:15.930Z,101079.09
2022-09-22T15:05:29.726Z,101099.94
2022-09-22T15:10:30.649Z,101087.59
2022-09-22T15:15:33.071Z,101100.84
2022-09-22T15:20:47.946Z,101100.91
2022-09-22T15:25:47.404Z,101061.63
2022-09-22T15:30:47.851Z,101085.53
2022-09-22T15:35:53.310Z,101089.75
2022-09-22T15:40:57.806Z,101095.22
2022-09-22T15:46:01.501Z,101094.78
2022-09-22T15:51:04.623Z,101100.34
2022-09-22T15:56:06.900Z,101095.56
2022-09-22T16:01:08.153Z,101106.91
2022-09-22T16:06:12.101Z,101109.75
2022-09-22T16:11:12.823Z,101117.06
2022-09-22T16:16:19.547Z,101122.41
2022-09-22T16:21:23.138Z,101117.34
2022-09-22T16:26:30.944Z,101133.78
2022-09-22T16:31:34.917Z,101101.06
2022-09-22T16:36:38.107Z,101102.91
2022-09-22T16:48:05.374Z,101127.34
2022-09-22T16:53:09.336Z,101146.44
2022-09-22T16:58:13.709Z,101132.16
2022-09-22T17:03:27.010Z,101148.66
2022-09-22T17:08:31.111Z,101145.38
2022-09-22T17:19:24.318Z,101140.56
2022-09-22T17:24:22.794Z,101181.69
2022-09-22T17:29:48.706Z,101152.88
2022-09-22T17:35:06.634Z,101179.28
2022-09-22T17:40:09.560Z,101192.06
2022-09-22T17:45:11.154Z,101172.72
2022-09-22T17:50:35.634Z,101171.31
2022-09-22T17:55:36.869Z,101187.28
2022-09-22T18:00:39.972Z,101177.69
2022-09-22T18:05:42.059Z,101185.97
2022-09-22T18:10:41.377Z,101185.16
2022-09-22T18:15:54.211Z,101205.06
2022-09-22T18:20:55.393Z,101213.56
2022-09-22T18:25:59.698Z,101169.06
2022-09-22T18:30:57.828Z,101173.50
2022-09-22T18:35:57.569Z,101177.19
2022-09-22T18:40:55.226Z,101161.69
2022-09-22T18:45:53.258Z,101218.13
2022-09-22T18:50:54.423Z,101185.50
2022-09-22T18:55:54.266Z,101183.63
2022-09-22T19:00:52.352Z,101162.94
2022-09-22T19:05:50.614Z,101171.94
2022-09-22T19:10:48.422Z,101192.75
2022-09-22T19:15:49.144Z,101221.47
2022-09-22T19:20:49.941Z,101230.88
2022-09-22T19:25:51.938Z,101172.81
2022-09-22T19:30:51.262Z,101168.81
2022-09-22T19:35:53.601Z,101185.28
2022-09-22T19:40:56.246Z,101201.66
2022-09-22T19:45:56.279Z,101206.19
2022-09-22T19:50:54.956Z,101186.66
2022-09-22T19:55:53.980Z,101235.34
2022-09-22T20:00:55.272Z,101209.59
2022-09-22T20:05:53.667Z,101175.34
2022-09-22T20:11:01.837Z,101192.06
2022-09-22T20:16:10.845Z,101198.19
2022-09-22T20:21:17.255Z,101207.34
2022-09-22T20:26:24.116Z,101252.44
2022-09-22T20:31:21.532Z,101258.50
2022-09-22T20:36:20.534Z,101253.00
2022-09-22T20:41:22.916Z,101263.84
2022-09-22T20:46:20.544Z,101264.16
2022-09-22T20:51:18.136Z,101242.50
2022-09-22T20:56:18.336Z,101255.28
2022-09-22T21:01:17.214Z,101277.34
2022-09-22T21:06:16.109Z,101283.75
2022-09-22T21:11:20.405Z,101287.44
2022-09-22T21:16:17.822Z,101285.78
2022-09-22T21:21:21.578Z,101232.97
2022-09-22T21:26:20.887Z,101248.50
2022-09-22T21:31:21.573Z,101257.81
2022-09-22T21:36:22.778Z,101284.84
2022-09-22T21:41:25.572Z,101249.78
2022-09-22T21:46:26.585Z,101266.19
2022-09-22T21:51:24.365Z,101260.09
2022-09-22T21:56:30.941Z,101265.06
2022-09-22T22:01:31.664Z,101255.91
2022-09-22T22:06:31.727Z,101225.81
2022-09-22T22:11:34.498Z,101221.56
2022-09-22T22:16:37.445Z,101235.13
2022-09-22T22:21:35.683Z,101239.53
2022-09-22T22:26:33.767Z,101224.34
2022-09-22T22:31:40.040Z,101253.13
2022-09-22T22:36:58.378Z,101287.16
2022-09-22T22:41:56.716Z,101250.81
2022-09-22T22:46:55.389Z,101286.50
2022-09-22T22:51:57.399Z,101269.16
2022-09-22T22:56:58.918Z,101266.56
2022-09-22T23:01:58.336Z,101226.78
2022-09-22T23:06:59.305Z,101228.09
2022-09-22T23:12:00.789Z,101205.03
2022-09-22T23:17:01.043Z,101238.25
2022-09-22T23:22:13.452Z,101223.81
2022-09-22T23:27:12.081Z,101247.22
2022-09-22T23:32:11.724Z,101210.25
2022-09-22T23:37:10.362Z,101216.31
2022-09-22T23:42:09.259Z,101184.06
2022-09-22T23:47:08.186Z,101208.38
2022-09-22T23:52:06.605Z,101225.56
2022-09-22T23:57:07.703Z,101195.56
